Time;durP1;ratioP1;P1;durP2;ratioP2;P2;SDS_P1;SDS_P2;PMS_P1;PMS_P2;Temp;Humidity;BMP_temperature;BMP_pressure;BME280_temperature;BME280_humidity;BME280_pressure;Samples;Min_cycle;Max_cycle;Signal;HPM_P1;HPM_P2
2021/08/22 00:01:24;;;;;;;10.50;9.23;;;;;;;;;;5012544;28;20026;-66
2021/08/22 00:03:50;;;;;;;11.35;10.15;;;;;;;;;;5012461;28;20034;-66
2021/08/22 00:06:16;;;;;;;10.02;9.00;;;;;;;;;;5012257;28;20484;-66
2021/08/22 00:08:42;;;;;;;10.63;8.48;;;;;;;;;;5012467;28;20037;-66
2021/08/22 00:11:08;;;;;;;11.93;8.23;;;;;;;;;;5012202;28;20480;-65
2021/08/22 00:13:34;;;;;;;10.80;8.35;;;;;;;;;;5011983;28;20160;-65
2021/08/22 00:16:00;;;;;;;9.30;8.27;;;;;;;;;;5011898;28;20499;-66
2021/08/22 00:18:26;;;;;;;13.23;9.45;;;;;;;;;;5012208;28;20030;-66
2021/08/22 00:20:52;;;;;;;9.52;7.90;;;;;;;;;;5012315;28;20373;-66
2021/08/22 00:23:18;;;;;;;9.20;8.02;;;;;;;;;;5012096;28;20469;-66
2021/08/22 00:25:44;;;;;;;10.63;8.70;;;;;;;;;;5011890;28;20033;-66
2021/08/22 00:28:10;;;;;;;10.50;9.40;;;;;;;;;;5012006;28;20037;-67
2021/08/22 00:30:37;;;;;;;9.77;8.63;;;;;;;;;;5012127;28;20088;-66
2021/08/22 00:33:03;;;;;;;11.50;8.38;;;;;;;;;;4994326;28;20018;-66
2021/08/22 00:35:29;;;;;;;10.85;8.52;;;;;;;;;;4994260;28;20034;-65
2021/08/22 00:37:56;;;;;;;11.95;8.85;;;;;;;;;;5012003;28;20079;-66
2021/08/22 00:40:22;;;;;;;9.90;7.97;;;;;;;;;;5011992;28;20026;-66
2021/08/22 00:42:48;;;;;;;8.65;7.72;;;;;;;;;;5011864;28;20075;-67
2021/08/22 00:45:15;;;;;;;8.90;7.78;;;;;;;;;;5030758;28;20147;-64
2021/08/22 00:47:42;;;;;;;8.57;7.65;;;;;;;;;;5031596;28;20021;-65
2021/08/22 00:50:08;;;;;;;8.18;7.35;;;;;;;;;;5031701;28;20021;-66
2021/08/22 00:52:34;;;;;;;10.15;7.72;;;;;;;;;;5013873;28;20021;-66
2021/08/22 00:55:04;;;;;;;8.40;7.10;;;;;;;;;;5013238;28;20116;-66
2021/08/22 00:57:30;;;;;;;10.57;7.22;;;;;;;;;;5031465;28;20032;-66
2021/08/22 00:59:58;;;;;;;11.40;7.93;;;;;;;;;;5031352;28;20394;-66
2021/08/22 01:02:29;;;;;;;9.40;6.97;;;;;;;;;;5031884;28;20486;-66
2021/08/22 01:05:06;;;;;;;8.98;7.05;;;;;;;;;;5031195;28;20030;-66
2021/08/22 01:07:35;;;;;;;8.50;7.35;;;;;;;;;;5032909;28;20029;-67
2021/08/22 01:10:03;;;;;;;9.32;6.90;;;;;;;;;;5035449;28;20080;-67
2021/08/22 01:12:37;;;;;;;8.13;7.32;;;;;;;;;;5035090;28;20109;-66
2021/08/22 01:15:05;;;;;;;7.32;6.50;;;;;;;;;;5034920;28;20026;-66
2021/08/22 01:17:32;;;;;;;7.22;6.20;;;;;;;;;;5017166;28;20025;-67
2021/08/22 01:20:22;;;;;;;8.73;6.88;;;;;;;;;;5034988;28;20365;-66
2021/08/22 01:22:48;;;;;;;8.00;6.80;;;;;;;;;;5017269;28;20021;-66
2021/08/22 01:25:15;;;;;;;10.75;7.53;;;;;;;;;;5034707;28;20124;-66
2021/08/22 01:27:42;;;;;;;8.60;7.80;;;;;;;;;;5017148;28;20121;-66
2021/08/22 01:30:09;;;;;;;9.82;8.25;;;;;;;;;;5034887;28;20100;-66
2021/08/22 01:32:38;;;;;;;9.88;8.05;;;;;;;;;;5034750;28;20030;-66
2021/08/22 01:35:06;;;;;;;14.18;8.52;;;;;;;;;;5038685;22;20141;-72
2021/08/22 01:37:32;;;;;;;11.50;8.65;;;;;;;;;;4997491;28;20037;-71
2021/08/22 01:39:58;;;;;;;10.80;8.98;;;;;;;;;;4997179;28;20479;-72
2021/08/22 01:42:25;;;;;;;10.70;8.50;;;;;;;;;;4997130;28;20152;-71
2021/08/22 01:44:51;;;;;;;11.48;8.25;;;;;;;;;;5014438;28;20030;-73
2021/08/22 01:47:16;;;;;;;9.85;8.85;;;;;;;;;;5014889;28;20034;-71
2021/08/22 01:49:43;;;;;;;9.55;8.55;;;;;;;;;;4997149;28;20048;-71
2021/08/22 01:52:09;;;;;;;8.43;7.07;;;;;;;;;;4996940;28;20548;-71
2021/08/22 01:54:36;;;;;;;11.18;7.68;;;;;;;;;;5014298;28;20029;-71
2021/08/22 01:57:02;;;;;;;9.23;7.45;;;;;;;;;;5014579;28;20473;-72
2021/08/22 01:59:27;;;;;;;7.22;6.53;;;;;;;;;;4997124;28;20118;-71
2021/08/22 02:01:56;;;;;;;11.65;7.13;;;;;;;;;;5014594;28;20054;-71
2021/08/22 02:04:31;;;;;;;11.93;7.00;;;;;;;;;;5014248;28;20037;-71
2021/08/22 02:07:08;;;;;;;6.95;6.20;;;;;;;;;;4996970;28;20036;-71
2021/08/22 02:09:39;;;;;;;7.70;6.88;;;;;;;;;;4996901;28;20030;-72
2021/08/22 02:12:10;;;;;;;8.17;6.70;;;;;;;;;;5014706;28;20030;-70
2021/08/22 02:14:36;;;;;;;;;;;;;;;;;;4996967;28;20455;-72
2021/08/22 02:17:03;;;;;;;7.70;6.40;;;;;;;;;;4996818;28;19932;-72
2021/08/22 02:19:30;;;;;;;9.70;7.20;;;;;;;;;;5013162;28;20036;-72
2021/08/22 02:21:56;;;;;;;8.00;6.53;;;;;;;;;;4996413;28;20039;-71
2021/08/22 02:24:23;;;;;;;8.25;6.75;;;;;;;;;;4977014;28;20034;-71
2021/08/22 02:26:49;;;;;;;10.65;7.05;;;;;;;;;;4976863;28;20038;-71
2021/08/22 02:29:15;;;;;;;10.23;7.97;;;;;;;;;;4994432;28;20049;-71
2021/08/22 02:31:41;;;;;;;8.85;7.25;;;;;;;;;;4994438;28;20500;-71
2021/08/22 02:34:07;;;;;;;8.75;6.72;;;;;;;;;;4994086;28;20164;-70
2021/08/22 02:36:33;;;;;;;8.05;6.82;;;;;;;;;;4994024;28;20033;-71
2021/08/22 02:38:59;;;;;;;8.60;7.07;;;;;;;;;;4994102;28;20073;-71
2021/08/22 02:41:24;;;;;;;11.43;8.23;;;;;;;;;;4998287;28;20026;-71
2021/08/22 02:43:50;;;;;;;7.45;6.70;;;;;;;;;;5006009;28;20113;-72
2021/08/22 02:46:16;;;;;;;8.43;6.55;;;;;;;;;;5012099;28;20030;-72
2021/08/22 02:48:42;;;;;;;7.97;6.90;;;;;;;;;;5012230;28;20029;-72
2021/08/22 02:51:08;;;;;;;8.60;6.95;;;;;;;;;;5013537;28;20026;-71
2021/08/22 02:53:34;;;;;;;8.05;6.32;;;;;;;;;;4995817;28;20535;-72
2021/08/22 02:56:00;;;;;;;10.45;6.32;;;;;;;;;;5013129;28;20483;-71
2021/08/22 02:58:26;;;;;;;7.03;5.95;;;;;;;;;;5013300;28;20444;-72
2021/08/22 03:00:52;;;;;;;7.25;6.47;;;;;;;;;;5013359;28;20093;-71
2021/08/22 03:03:18;;;;;;;6.95;6.25;;;;;;;;;;5013303;28;20113;-72
2021/08/22 03:05:44;;;;;;;8.73;6.18;;;;;;;;;;5012934;28;20026;-72
2021/08/22 03:08:10;;;;;;;9.40;6.78;;;;;;;;;;4995712;28;20026;-71
2021/08/22 03:10:38;;;;;;;7.45;5.78;;;;;;;;;;5013063;28;20511;-71
2021/08/22 03:13:04;;;;;;;7.80;6.45;;;;;;;;;;5013280;28;20100;-70
2021/08/22 03:15:30;;;;;;;6.63;6.00;;;;;;;;;;5012856;28;20028;-71
2021/08/22 03:17:56;;;;;;;6.70;6.05;;;;;;;;;;5013267;28;20022;-71
2021/08/22 03:20:22;;;;;;;8.45;6.50;;;;;;;;;;4995980;28;20033;-72
2021/08/22 03:22:48;;;;;;;13.05;6.97;;;;;;;;;;5013779;28;20026;-72
2021/08/22 03:25:14;;;;;;;9.90;6.50;;;;;;;;;;4995178;28;20507;-70
2021/08/22 03:27:40;;;;;;;7.05;6.35;;;;;;;;;;4995958;28;20045;-70
2021/08/22 03:30:07;;;;;;;7.45;6.53;;;;;;;;;;5012799;28;20026;-71
2021/08/22 03:32:33;;;;;;;8.07;6.35;;;;;;;;;;5013467;28;20110;-70
2021/08/22 03:34:59;;;;;;;7.65;6.07;;;;;;;;;;4995123;28;20112;-70
2021/08/22 03:37:25;;;;;;;11.27;6.65;;;;;;;;;;4995413;28;20026;-71
2021/08/22 03:39:51;;;;;;;7.30;6.45;;;;;;;;;;4995189;28;20026;-71
2021/08/22 03:42:17;;;;;;;9.75;6.13;;;;;;;;;;5013256;28;20032;-72
2021/08/22 03:44:43;;;;;;;9.90;6.85;;;;;;;;;;5012377;28;20510;-70
2021/08/22 03:47:09;;;;;;;8.48;6.40;;;;;;;;;;5012496;28;20032;-72
2021/08/22 03:49:35;;;;;;;9.13;6.15;;;;;;;;;;5012658;28;20661;-72
2021/08/22 03:52:01;;;;;;;7.90;7.07;;;;;;;;;;4994739;28;20025;-71
2021/08/22 03:54:27;;;;;;;8.32;6.70;;;;;;;;;;5011976;28;20041;-72
2021/08/22 03:56:53;;;;;;;8.75;6.57;;;;;;;;;;5012355;28;20503;-71
2021/08/22 03:59:19;;;;;;;7.10;5.95;;;;;;;;;;5012412;28;20018;-72
2021/08/22 04:01:45;;;;;;;9.55;6.68;;;;;;;;;;5012506;28;20029;-71
2021/08/22 04:04:11;;;;;;;6.85;6.00;;;;;;;;;;5012165;28;20026;-71
2021/08/22 04:06:39;;;;;;;8.15;6.50;;;;;;;;;;5012208;28;20116;-72
2021/08/22 04:09:07;;;;;;;6.53;5.93;;;;;;;;;;5012676;28;20018;-72
2021/08/22 04:11:33;;;;;;;7.20;5.95;;;;;;;;;;5012472;28;20037;-72
2021/08/22 04:13:59;;;;;;;9.65;6.13;;;;;;;;;;4994368;28;20036;-72
2021/08/22 04:16:25;;;;;;;11.40;6.55;;;;;;;;;;4994320;28;20407;-72
2021/08/22 04:18:51;;;;;;;8.82;6.82;;;;;;;;;;5016260;28;20090;-70
2021/08/22 04:21:17;;;;;;;9.10;6.18;;;;;;;;;;5014609;28;20026;-70
2021/08/22 04:23:43;;;;;;;9.18;6.07;;;;;;;;;;5016364;28;20050;-70
2021/08/22 04:26:09;;;;;;;15.38;6.13;;;;;;;;;;5014258;28;20101;-71
2021/08/22 04:28:36;;;;;;;8.95;6.10;;;;;;;;;;4994346;28;20065;-70
2021/08/22 04:31:02;;;;;;;7.63;6.07;;;;;;;;;;5011937;28;20026;-70
2021/08/22 04:33:28;;;;;;;8.38;6.03;;;;;;;;;;4994195;28;20128;-70
2021/08/22 04:35:55;;;;;;;9.00;6.20;;;;;;;;;;4993896;28;20033;-70
2021/08/22 04:38:21;;;;;;;8.98;5.45;;;;;;;;;;4993969;28;20121;-71
2021/08/22 04:40:47;;;;;;;6.07;5.47;;;;;;;;;;5011757;28;20061;-71
2021/08/22 04:43:13;;;;;;;8.23;6.40;;;;;;;;;;5014507;28;20080;-71
2021/08/22 04:45:39;;;;;;;8.13;5.80;;;;;;;;;;5015371;28;20029;-71
2021/08/22 04:48:05;;;;;;;6.07;5.45;;;;;;;;;;4998059;28;20084;-71
2021/08/22 04:50:31;;;;;;;9.70;5.97;;;;;;;;;;5015595;28;20542;-71
2021/08/22 04:52:57;;;;;;;8.27;5.82;;;;;;;;;;5015514;28;20034;-71
2021/08/22 04:55:23;;;;;;;6.43;5.40;;;;;;;;;;4997570;28;20029;-72
2021/08/22 04:57:51;;;;;;;5.78;5.18;;;;;;;;;;4998876;28;20546;-72
2021/08/22 05:00:18;;;;;;;6.30;5.30;;;;;;;;;;5000233;28;20109;-74
2021/08/22 05:02:44;;;;;;;5.65;5.10;;;;;;;;;;5017325;28;20476;-73
2021/08/22 05:05:10;;;;;;;6.40;5.18;;;;;;;;;;4999473;28;20051;-71
2021/08/22 05:07:36;;;;;;;5.97;4.90;;;;;;;;;;5014135;28;20034;-74
2021/08/22 05:10:03;;;;;;;10.45;5.22;;;;;;;;;;4998224;28;20037;-74
2021/08/22 05:12:29;;;;;;;6.82;5.43;;;;;;;;;;4998459;28;20052;-71
2021/08/22 05:14:57;;;;;;;7.55;5.70;;;;;;;;;;5014666;28;20427;-70
2021/08/22 05:17:24;;;;;;;6.80;5.25;;;;;;;;;;5016239;28;20022;-72
2021/08/22 05:19:50;;;;;;;7.50;4.70;;;;;;;;;;5012908;28;20022;-74
2021/08/22 05:22:16;;;;;;;6.22;5.05;;;;;;;;;;4994421;28;20022;-73
2021/08/22 05:24:42;;;;;;;8.40;5.22;;;;;;;;;;5013257;28;20101;-71
2021/08/22 05:27:08;;;;;;;8.20;5.20;;;;;;;;;;5013261;28;20051;-74
2021/08/22 05:29:34;;;;;;;5.50;5.00;;;;;;;;;;5005196;28;20093;-73
2021/08/22 05:32:02;;;;;;;6.30;5.45;;;;;;;;;;4996794;28;20077;-73
2021/08/22 05:34:44;;;;;;;8.25;5.95;;;;;;;;;;5002810;28;20042;-72
2021/08/22 05:37:10;;;;;;;53.08;38.95;;;;;;;;;;5011350;28;20025;-73
2021/08/22 05:39:36;;;;;;;5.20;4.40;;;;;;;;;;5015987;28;20025;-74
2021/08/22 05:42:03;;;;;;;5.10;4.60;;;;;;;;;;5012145;28;20033;-75
2021/08/22 05:44:30;;;;;;;6.20;4.82;;;;;;;;;;5011134;28;20496;-74
2021/08/22 05:47:05;;;;;;;4.80;4.20;;;;;;;;;;5013223;28;20041;-74
2021/08/22 05:49:48;;;;;;;10.05;7.13;;;;;;;;;;5014256;28;20026;-73
2021/08/22 05:52:17;;;;;;;8.27;4.78;;;;;;;;;;5015338;28;20065;-73
2021/08/22 05:54:49;;;;;;;9.65;6.28;;;;;;;;;;5011577;28;20026;-72
2021/08/22 06:00:22;;;;;;;7.78;5.80;;;;;;;;;;4971736;28;20030;-72
2021/08/22 06:02:48;;;;;;;9.07;5.30;;;;;;;;;;4997261;28;20032;-73
2021/08/22 06:05:23;;;;;;;5.95;4.70;;;;;;;;;;5008713;28;20023;-72
2021/08/22 06:08:34;;;;;;;8.35;5.38;;;;;;;;;;5007165;28;20125;-72
2021/08/22 06:11:01;;;;;;;8.75;5.43;;;;;;;;;;4934447;29;20039;-72
2021/08/22 06:14:07;;;;;;;22.92;13.75;;;;;;;;;;4935474;29;20028;-73
2021/08/22 06:16:46;;;;;;;146.10;68.55;;;;;;;;;;4932666;29;20453;-73
2021/08/22 06:19:12;;;;;;;12.43;9.07;;;;;;;;;;4933565;29;20095;-71
2021/08/22 06:21:38;;;;;;;22.15;13.35;;;;;;;;;;4935222;28;20038;-70
2021/08/22 06:24:04;;;;;;;8.65;5.88;;;;;;;;;;5008626;28;20041;-71
2021/08/22 06:26:30;;;;;;;7.40;5.55;;;;;;;;;;5011466;28;20025;-70
2021/08/22 06:28:56;;;;;;;16.35;9.75;;;;;;;;;;4989309;28;20085;-72
2021/08/22 06:31:22;;;;;;;7.85;4.82;;;;;;;;;;4990551;28;20061;-70
2021/08/22 06:33:48;;;;;;;8.98;5.35;;;;;;;;;;5009662;28;20072;-72
2021/08/22 06:36:14;;;;;;;9.68;6.60;;;;;;;;;;5008637;28;20026;-71
2021/08/22 06:38:40;;;;;;;6.30;5.68;;;;;;;;;;4995167;28;20456;-72
2021/08/22 06:41:06;;;;;;;10.20;6.68;;;;;;;;;;5008323;28;20022;-72
2021/08/22 06:43:32;;;;;;;10.85;7.70;;;;;;;;;;5010314;28;20699;-72
2021/08/22 06:45:58;;;;;;;14.98;8.65;;;;;;;;;;5009764;28;20041;-72
2021/08/22 06:48:25;;;;;;;14.73;9.65;;;;;;;;;;4994853;28;20484;-72
2021/08/22 06:50:51;;;;;;;12.93;8.75;;;;;;;;;;5012449;28;20030;-72
2021/08/22 06:53:17;;;;;;;8.45;6.57;;;;;;;;;;4992832;28;20022;-72
2021/08/22 06:55:43;;;;;;;10.55;7.93;;;;;;;;;;4992546;28;20168;-72
2021/08/22 06:58:09;;;;;;;6.85;5.25;;;;;;;;;;4993245;28;20112;-71
2021/08/22 07:00:35;;;;;;;8.27;5.65;;;;;;;;;;4990512;28;20643;-71
2021/08/22 07:03:01;;;;;;;7.88;5.40;;;;;;;;;;5007614;28;20045;-71
2021/08/22 07:05:27;;;;;;;6.47;5.50;;;;;;;;;;5008807;28;20526;-76
2021/08/22 07:07:54;;;;;;;9.88;5.30;;;;;;;;;;5008124;28;20419;-76
2021/08/22 07:10:20;;;;;;;7.32;5.05;;;;;;;;;;4995343;28;20479;-72
2021/08/22 07:12:46;;;;;;;8.13;5.50;;;;;;;;;;4994921;28;20100;-72
2021/08/22 07:15:12;;;;;;;5.80;5.18;;;;;;;;;;5011793;28;20030;-72
2021/08/22 07:17:38;;;;;;;10.18;5.13;;;;;;;;;;5010415;28;20132;-72
2021/08/22 07:20:05;;;;;;;12.98;5.88;;;;;;;;;;5014300;28;20056;-72
2021/08/22 07:22:31;;;;;;;7.97;5.20;;;;;;;;;;4991586;28;20025;-72
2021/08/22 07:24:59;;;;;;;7.60;5.65;;;;;;;;;;5010419;28;20734;-71
2021/08/22 07:27:25;;;;;;;6.28;5.38;;;;;;;;;;5011271;28;20594;-71
2021/08/22 07:29:51;;;;;;;7.63;5.68;;;;;;;;;;4993971;28;20036;-72
2021/08/22 07:32:17;;;;;;;8.10;5.50;;;;;;;;;;5012376;28;20037;-72
2021/08/22 07:34:43;;;;;;;7.05;5.38;;;;;;;;;;5034791;22;20120;-65
2021/08/22 07:37:09;;;;;;;7.00;5.22;;;;;;;;;;5011644;28;20466;-67
2021/08/22 07:39:35;;;;;;;7.90;5.40;;;;;;;;;;5011971;28;20026;-68
2021/08/22 07:42:01;;;;;;;6.03;4.85;;;;;;;;;;5012535;28;20026;-67
2021/08/22 07:44:28;;;;;;;7.13;5.50;;;;;;;;;;4994437;28;20041;-68
2021/08/22 07:46:54;;;;;;;6.13;5.53;;;;;;;;;;4978547;28;20108;-68
2021/08/22 07:49:20;;;;;;;6.50;5.07;;;;;;;;;;5007978;28;20047;-67
2021/08/22 07:51:49;;;;;;;6.75;5.78;;;;;;;;;;5012313;28;20038;-68
2021/08/22 07:54:15;;;;;;;7.45;5.43;;;;;;;;;;5007881;28;20034;-67
2021/08/22 07:56:41;;;;;;;6.60;5.75;;;;;;;;;;5011299;28;20026;-66
2021/08/22 07:59:08;;;;;;;5.93;5.32;;;;;;;;;;5008249;28;20435;-68
2021/08/22 08:01:35;;;;;;;8.90;5.55;;;;;;;;;;5012284;28;20499;-67
2021/08/22 08:04:01;;;;;;;13.40;5.45;;;;;;;;;;5012243;28;20048;-68
2021/08/22 08:06:27;;;;;;;7.10;5.95;;;;;;;;;;5011999;28;20026;-68
2021/08/22 08:08:53;;;;;;;7.25;5.72;;;;;;;;;;5012320;28;20076;-68
2021/08/22 08:11:19;;;;;;;11.02;5.75;;;;;;;;;;4994282;28;20033;-68
2021/08/22 08:13:45;;;;;;;10.05;6.25;;;;;;;;;;5011972;28;20075;-68
2021/08/22 08:16:10;;;;;;;6.65;5.90;;;;;;;;;;5011503;28;20369;-67
2021/08/22 08:18:36;;;;;;;9.13;5.97;;;;;;;;;;5011976;28;20434;-68
2021/08/22 08:21:04;;;;;;;9.77;6.07;;;;;;;;;;4994305;28;20037;-66
2021/08/22 08:23:30;;;;;;;12.65;6.25;;;;;;;;;;5011355;28;20068;-69
2021/08/22 08:25:57;;;;;;;13.50;8.27;;;;;;;;;;4993844;28;20117;-66
2021/08/22 08:28:23;;;;;;;7.38;5.97;;;;;;;;;;5011831;28;20030;-67
2021/08/22 08:30:49;;;;;;;10.65;6.20;;;;;;;;;;5011822;28;20026;-67
2021/08/22 08:33:15;;;;;;;6.55;5.68;;;;;;;;;;4993157;28;20022;-68
2021/08/22 08:35:41;;;;;;;7.45;5.30;;;;;;;;;;4993667;28;20029;-71
2021/08/22 08:38:07;;;;;;;8.57;5.55;;;;;;;;;;5011885;28;20026;-69
2021/08/22 08:40:33;;;;;;;9.57;5.10;;;;;;;;;;5011866;28;20064;-69
2021/08/22 08:43:03;;;;;;;7.43;4.97;;;;;;;;;;5011882;28;20048;-70
2021/08/22 08:45:44;;;;;;;7.32;5.53;;;;;;;;;;5011678;28;20038;-71
2021/08/22 08:48:10;;;;;;;10.55;6.18;;;;;;;;;;5011999;28;20026;-71
2021/08/22 08:50:40;;;;;;;8.35;5.63;;;;;;;;;;4994171;28;20018;-70
2021/08/22 08:53:09;;;;;;;8.48;6.22;;;;;;;;;;5011891;28;20030;-70
2021/08/22 08:55:35;;;;;;;11.13;6.68;;;;;;;;;;5009376;28;20088;-70
2021/08/22 08:58:02;;;;;;;7.15;6.00;;;;;;;;;;5009087;28;20025;-69
2021/08/22 09:00:28;;;;;;;7.25;5.05;;;;;;;;;;5007177;28;20018;-69
2021/08/22 09:02:56;;;;;;;9.10;6.45;;;;;;;;;;5004788;28;20117;-69
2021/08/22 09:05:26;;;;;;;13.60;9.35;;;;;;;;;;5010876;28;20377;-70
2021/08/22 09:08:04;;;;;;;11.43;8.18;;;;;;;;;;4993815;28;20033;-71
2021/08/22 09:10:49;;;;;;;8.25;6.10;;;;;;;;;;5012026;28;20029;-70
2021/08/22 09:13:27;;;;;;;10.20;6.50;;;;;;;;;;4993945;28;20026;-69
2021/08/22 09:16:12;;;;;;;11.68;5.78;;;;;;;;;;5011286;28;20050;-69
2021/08/22 09:18:57;;;;;;;8.13;5.97;;;;;;;;;;5011626;28;20088;-69
2021/08/22 09:21:41;;;;;;;13.68;6.10;;;;;;;;;;5011466;28;20022;-70
2021/08/22 09:24:26;;;;;;;94.43;72.43;;;;;;;;;;5011484;28;20484;-72
2021/08/22 09:26:52;;;;;;;226.30;152.30;;;;;;;;;;5011909;28;20365;-69
2021/08/22 09:29:36;;;;;;;26.55;19.40;;;;;;;;;;5014328;28;20033;-70
2021/08/22 09:32:21;;;;;;;210.70;135.50;;;;;;;;;;4997549;28;20037;-70
2021/08/22 09:35:06;;;;;;;14.30;10.27;;;;;;;;;;5014338;28;20030;-70
2021/08/22 09:37:38;;;;;;;22.92;16.45;;;;;;;;;;5015021;28;20373;-70
2021/08/22 09:40:23;;;;;;;47.28;33.30;;;;;;;;;;5015115;28;20480;-72
2021/08/22 09:43:07;;;;;;;30.02;21.48;;;;;;;;;;5015305;28;20527;-73
2021/08/22 09:45:52;;;;;;;9.60;6.80;;;;;;;;;;5014978;28;20038;-68
2021/08/22 09:48:37;;;;;;;9.10;6.60;;;;;;;;;;5014877;28;20022;-68
2021/08/22 09:51:09;;;;;;;58.65;45.97;;;;;;;;;;5015256;28;20029;-67
2021/08/22 09:53:54;;;;;;;115.03;90.05;;;;;;;;;;5014701;28;20080;-66
2021/08/22 09:56:38;;;;;;;67.68;50.13;;;;;;;;;;5014580;28;20024;-67
2021/08/22 09:59:07;;;;;;;29.45;23.55;;;;;;;;;;5014766;28;20105;-66
2021/08/22 10:01:33;;;;;;;73.32;51.38;;;;;;;;;;4997201;28;20415;-67
2021/08/22 10:04:14;;;;;;;16.67;12.55;;;;;;;;;;5014580;28;20092;-67
2021/08/22 10:06:40;;;;;;;;;;;;;;;;;;5016034;28;20022;-67
2021/08/22 10:09:26;;;;;;;9.68;8.27;;;;;;;;;;5016264;28;19917;-68
2021/08/22 10:12:02;;;;;;;12.15;9.35;;;;;;;;;;4998017;28;20480;-67
2021/08/22 10:14:29;;;;;;;29.10;21.60;;;;;;;;;;5013750;28;20530;-68
2021/08/22 10:16:55;;;;;;;36.40;26.02;;;;;;;;;;4996950;28;20030;-67
2021/08/22 10:19:23;;;;;;;18.52;12.02;;;;;;;;;;5014230;28;20025;-66
2021/08/22 10:22:17;;;;;;;17.80;11.82;;;;;;;;;;5014007;28;20018;-67
2021/08/22 10:24:56;;;;;;;12.25;9.65;;;;;;;;;;5013607;28;20105;-68
2021/08/22 10:27:34;;;;;;;8.65;6.55;;;;;;;;;;5014112;28;20026;-67
2021/08/22 10:30:04;;;;;;;6.20;5.47;;;;;;;;;;4996372;28;20415;-67
2021/08/22 10:32:30;;;;;;;7.18;5.93;;;;;;;;;;5014031;28;20492;-68
2021/08/22 10:35:12;;;;;;;9.30;6.47;;;;;;;;;;5013558;28;20420;-68
2021/08/22 10:37:38;;;;;;;8.77;6.30;;;;;;;;;;5013766;28;20022;-68
2021/08/22 10:53:14;;;;;;;7.97;5.38;;;;;;;;;;5112281;27;20441;-67
2021/08/22 10:55:40;;;;;;;10.43;6.55;;;;;;;;;;5111333;28;20081;-66
2021/08/22 10:58:08;;;;;;;13.02;9.13;;;;;;;;;;5130770;27;20065;-67
2021/08/22 11:00:36;;;;;;;4.65;3.90;;;;;;;;;;5124599;22;20048;-71
2021/08/22 11:03:04;;;;;;;4.22;3.30;;;;;;;;;;5108484;28;20031;-72
2021/08/22 11:05:31;;;;;;;5.78;4.25;;;;;;;;;;5105632;28;20131;-72
2021/08/22 11:08:11;;;;;;;5.43;3.88;;;;;;;;;;5108108;28;20062;-73
2021/08/22 11:10:37;;;;;;;7.32;5.00;;;;;;;;;;5087608;28;20046;-72
2021/08/22 11:13:03;;;;;;;4.82;3.72;;;;;;;;;;5088689;28;20036;-72
2021/08/22 11:15:31;;;;;;;4.32;3.92;;;;;;;;;;5089030;28;20021;-71
2021/08/22 11:18:01;;;;;;;4.90;3.80;;;;;;;;;;5084969;28;20043;-72
2021/08/22 11:20:29;;;;;;;7.05;5.10;;;;;;;;;;5078162;28;20028;-74
2021/08/22 11:23:16;;;;;;;15.90;9.80;;;;;;;;;;5086362;28;20024;-73
2021/08/22 11:25:43;;;;;;;12.02;7.07;;;;;;;;;;5088260;28;20103;-72
2021/08/22 11:28:13;;;;;;;6.05;4.18;;;;;;;;;;5087933;28;20029;-72
2021/08/22 11:30:40;;;;;;;5.60;4.22;;;;;;;;;;5086960;28;20032;-72
2021/08/22 11:33:06;;;;;;;6.35;4.55;;;;;;;;;;5087395;28;20024;-73
2021/08/22 11:35:35;;;;;;;3.40;3.10;;;;;;;;;;5087992;28;20070;-73
2021/08/22 11:38:01;;;;;;;3.38;2.50;;;;;;;;;;5086650;28;20032;-72
2021/08/22 11:40:28;;;;;;;6.07;4.78;;;;;;;;;;5086533;28;20035;-74
2021/08/22 11:42:56;;;;;;;4.68;3.88;;;;;;;;;;5085799;28;20020;-73
2021/08/22 11:45:23;;;;;;;5.60;3.53;;;;;;;;;;5088044;28;20150;-72
2021/08/22 11:47:49;;;;;;;3.33;3.03;;;;;;;;;;5087869;28;20473;-73
2021/08/22 11:50:16;;;;;;;4.50;3.67;;;;;;;;;;5086358;28;20395;-74
2021/08/22 11:52:44;;;;;;;8.80;3.25;;;;;;;;;;5080223;28;20590;-73
2021/08/22 11:55:11;;;;;;;6.85;5.53;;;;;;;;;;5073081;28;20422;-74
2021/08/22 11:57:37;;;;;;;3.28;2.95;;;;;;;;;;5065412;28;20025;-72
2021/08/22 12:00:04;;;;;;;3.90;3.10;;;;;;;;;;5053811;28;20039;-74
2021/08/22 12:02:30;;;;;;;3.33;2.67;;;;;;;;;;5057858;28;20048;-72
2021/08/22 12:05:15;;;;;;;3.75;3.10;;;;;;;;;;5068225;28;20021;-71
2021/08/22 12:07:41;;;;;;;4.50;3.17;;;;;;;;;;5072698;28;20024;-72
2021/08/22 12:10:09;;;;;;;9.40;3.70;;;;;;;;;;5073620;28;20028;-71
2021/08/22 12:12:39;;;;;;;4.35;3.95;;;;;;;;;;5073520;28;20090;-72
2021/08/22 12:15:09;;;;;;;7.83;5.83;;;;;;;;;;5074112;28;20016;-73
2021/08/22 12:17:36;;;;;;;4.05;3.65;;;;;;;;;;5073535;28;20342;-72
2021/08/22 12:20:18;;;;;;;8.55;6.03;;;;;;;;;;5073095;28;20027;-73
2021/08/22 12:22:44;;;;;;;9.15;5.75;;;;;;;;;;5071109;28;20115;-72
2021/08/22 12:25:23;;;;;;;6.53;4.43;;;;;;;;;;5068226;28;20040;-73
2021/08/22 12:27:49;;;;;;;4.30;3.90;;;;;;;;;;5053119;28;20503;-72
2021/08/22 12:30:15;;;;;;;10.23;7.15;;;;;;;;;;5051686;28;20053;-74
2021/08/22 12:32:41;;;;;;;4.55;4.05;;;;;;;;;;5052795;28;20426;-74
2021/08/22 12:35:08;;;;;;;16.00;9.35;;;;;;;;;;5053545;28;20029;-73
2021/08/22 12:37:34;;;;;;;5.45;4.47;;;;;;;;;;5053799;28;20390;-70
2021/08/22 12:40:05;;;;;;;4.00;3.70;;;;;;;;;;5053587;28;20021;-71
2021/08/22 12:42:32;;;;;;;5.00;4.20;;;;;;;;;;5052569;28;20028;-70
2021/08/22 12:44:58;;;;;;;38.70;27.15;;;;;;;;;;5053545;28;20060;-71
2021/08/22 12:47:24;;;;;;;116.47;63.70;;;;;;;;;;5052329;28;20017;-74
2021/08/22 12:49:50;;;;;;;25.45;14.18;;;;;;;;;;5051753;28;20017;-73
2021/08/22 12:52:16;;;;;;;90.38;48.78;;;;;;;;;;5051446;28;20391;-69
2021/08/22 12:54:43;;;;;;;456.88;399.33;;;;;;;;;;5052705;28;20033;-70
2021/08/22 12:57:09;;;;;;;126.25;78.65;;;;;;;;;;5053036;28;20032;-72
2021/08/22 12:59:35;;;;;;;242.90;122.53;;;;;;;;;;5052641;28;20402;-70
2021/08/22 13:02:01;;;;;;;38.08;22.67;;;;;;;;;;5052403;28;20029;-71
2021/08/22 13:04:28;;;;;;;16.45;11.15;;;;;;;;;;5050009;28;20021;-70
2021/08/22 13:06:55;;;;;;;51.92;31.48;;;;;;;;;;5052648;28;20036;-70
2021/08/22 13:09:21;;;;;;;71.15;50.72;;;;;;;;;;5052688;28;20039;-71
2021/08/22 13:11:48;;;;;;;8.60;5.53;;;;;;;;;;5052932;28;20384;-71
2021/08/22 13:14:14;;;;;;;15.10;10.73;;;;;;;;;;5050846;28;20052;-71
2021/08/22 13:16:40;;;;;;;14.52;9.32;;;;;;;;;;5052741;28;20043;-69
2021/08/22 13:19:06;;;;;;;33.13;21.63;;;;;;;;;;5051495;28;20483;-70
2021/08/22 13:21:32;;;;;;;21.13;13.63;;;;;;;;;;5052473;28;20317;-69
2021/08/22 13:23:58;;;;;;;8.52;6.07;;;;;;;;;;5051936;28;20026;-69
2021/08/22 13:26:25;;;;;;;9.43;5.47;;;;;;;;;;5052330;28;20017;-70
2021/08/22 13:28:52;;;;;;;16.30;10.13;;;;;;;;;;5052430;28;20439;-70
2021/08/22 13:31:18;;;;;;;7.40;5.72;;;;;;;;;;5052216;28;20025;-70
2021/08/22 13:33:45;;;;;;;5.38;4.40;;;;;;;;;;5051782;28;20483;-69
2021/08/22 13:36:11;;;;;;;15.85;11.15;;;;;;;;;;5050719;28;20033;-71
2021/08/22 13:38:37;;;;;;;4.97;4.47;;;;;;;;;;5052199;28;20027;-70
2021/08/22 13:41:03;;;;;;;10.43;7.45;;;;;;;;;;5050997;28;20032;-71
2021/08/22 13:43:29;;;;;;;6.60;4.10;;;;;;;;;;5051682;28;20029;-72
2021/08/22 13:45:56;;;;;;;7.72;5.78;;;;;;;;;;5052056;28;20446;-69
2021/08/22 13:48:23;;;;;;;10.65;7.40;;;;;;;;;;5051978;28;20078;-69
2021/08/22 13:50:49;;;;;;;6.57;4.63;;;;;;;;;;5052099;28;20104;-69
2021/08/22 13:53:15;;;;;;;9.55;6.55;;;;;;;;;;5051420;28;20025;-69
2021/08/22 13:55:41;;;;;;;5.63;4.75;;;;;;;;;;5050742;28;20071;-70
2021/08/22 13:58:07;;;;;;;11.52;7.80;;;;;;;;;;5051732;28;20035;-70
2021/08/22 14:00:33;;;;;;;34.60;26.67;;;;;;;;;;5051441;28;20120;-71
2021/08/22 14:02:59;;;;;;;46.28;28.98;;;;;;;;;;5051207;28;20024;-71
2021/08/22 14:05:25;;;;;;;6.90;5.78;;;;;;;;;;5051995;28;20025;-71
2021/08/22 14:07:52;;;;;;;5.78;4.68;;;;;;;;;;5051743;28;20021;-71
2021/08/22 14:10:18;;;;;;;14.27;9.75;;;;;;;;;;5050244;28;20395;-70
2021/08/22 14:12:45;;;;;;;9.52;6.97;;;;;;;;;;5056480;28;20028;-71
2021/08/22 14:15:11;;;;;;;4.90;4.10;;;;;;;;;;5071672;28;20094;-70
2021/08/22 14:17:37;;;;;;;11.05;7.80;;;;;;;;;;5087436;28;20020;-69
2021/08/22 14:20:04;;;;;;;15.70;11.07;;;;;;;;;;5071642;28;20107;-68
2021/08/22 14:22:30;;;;;;;17.05;11.93;;;;;;;;;;5071194;28;20025;-68
2021/08/22 14:24:56;;;;;;;4.57;4.13;;;;;;;;;;5087040;28;20016;-68
2021/08/22 14:27:22;;;;;;;6.35;4.50;;;;;;;;;;5071342;28;20020;-68
2021/08/22 14:29:48;;;;;;;17.55;13.27;;;;;;;;;;5070037;28;20016;-69
2021/08/22 14:32:14;;;;;;;19.38;12.50;;;;;;;;;;5071715;28;20404;-67
2021/08/22 14:34:40;;;;;;;5.72;4.80;;;;;;;;;;5071291;28;20028;-69
2021/08/22 14:37:07;;;;;;;4.80;4.15;;;;;;;;;;5069918;28;20033;-68
2021/08/22 14:39:34;;;;;;;4.05;3.65;;;;;;;;;;5071354;28;20037;-68
2021/08/22 14:42:04;;;;;;;5.03;4.50;;;;;;;;;;5070931;28;20020;-68
2021/08/22 14:44:30;;;;;;;5.38;4.57;;;;;;;;;;5071017;28;20438;-69
2021/08/22 14:46:56;;;;;;;5.82;5.07;;;;;;;;;;5071108;28;20025;-70
2021/08/22 14:49:22;;;;;;;6.55;4.97;;;;;;;;;;5069745;28;20025;-66
2021/08/22 14:51:48;;;;;;;11.15;7.85;;;;;;;;;;5071077;28;20029;-70
2021/08/22 14:54:14;;;;;;;9.52;5.43;;;;;;;;;;5071292;28;20048;-67
2021/08/22 14:56:40;;;;;;;7.30;6.22;;;;;;;;;;5069974;28;20533;-68
2021/08/22 14:59:06;;;;;;;4.95;4.25;;;;;;;;;;5071042;28;20146;-68
2021/08/22 15:01:33;;;;;;;6.03;4.15;;;;;;;;;;5069896;28;20465;-68